Briefing drone pour Faverges

Rechercher une autre localisation

Conditions de vol :


Nous sommes le : Dimanche 16 mai 2021
Il est 00:57 UTC (02:57 LT)

Lever de soleil : 03:35 UTC (05:35 LT)
Coucher de soleil : 19:26 UTC (21:26 LT)

Météo

L'essentiel des conditions de vol

VIGILANCE MÉTÉO FRANCE - Haute-Savoie (74)
Vigilance Jaune : Avalanches
CARTE TEMSI
CARTES DES FRONTS
METAR de LFLP
LFLP 160030Z AUTO 00000KT 5000 -RA BR OVC018/// ///TCU 10/10 Q1010

Date d'émission: 16/05/2021
Heure d'émission: 00:30 UTC
Vent: Calme
Visibilité horizontale: 5000 m
Plafond :
- Couvert à 1800ft (549m)
Température: 10 °C
Point de rosée: 10 °C
Humidité: 100%
Pression (QNH): 1010 hPa
Conditions: Faible pluie
TAF de LFLP
AMD LFLP 151904Z 1519/1615 CNL

Conditions prévues :

Heure d'émission : Bulletin éffectué le 15 à 19:00 UTC
Prévision : Valide du 15 a 19:00 UTC au 16 a 15:00 UTC
Nuages : à 0ft (0 m)
WEBCAM POUR FAVERGES

Réglementation

Voler en sécurité

CARTES AERONAUTIQUE 1/500.000
CARTES VAC (LFLP)
SUP AIP




Chargement des AIP...
NOTAM (FAVERGES + Terrain à proximité / FIR )




Chargement des NOTAMS...
CONTACT PREFECTURE 74


Avertissement : Les données mises à disposition sont indicatives. Oxygène Drone ne pourra être tenu responsable de dégâts causés aux biens et aux personnes.